createdAt,value
2024-01-18T00:27:34.871Z,71.10
2024-01-18T01:25:38.943Z,72.00
2024-01-18T01:28:12.001Z,72.60
2024-01-18T01:30:54.698Z,72.80
2024-01-18T01:33:26.812Z,72.40
2024-01-18T01:35:57.655Z,72.70
2024-01-18T01:38:29.350Z,72.70
2024-01-18T01:41:00.078Z,72.90
2024-01-18T01:43:30.985Z,73.00
2024-01-18T01:46:03.802Z,72.80
2024-01-18T01:48:38.216Z,72.90
2024-01-18T01:51:11.897Z,72.90
2024-01-18T01:53:48.561Z,72.90
2024-01-18T01:56:22.771Z,72.80
2024-01-18T01:58:57.190Z,73.00
2024-01-18T02:01:32.676Z,72.70
2024-01-18T02:04:02.364Z,73.00
2024-01-18T02:06:33.270Z,73.00
2024-01-18T02:09:02.611Z,72.60
2024-01-18T02:11:34.684Z,72.80
2024-01-18T02:14:10.117Z,73.00
2024-01-18T02:16:41.417Z,73.00
2024-01-18T02:19:10.889Z,72.90
2024-01-18T02:21:46.239Z,72.90
2024-01-18T02:24:22.691Z,72.70
2024-01-18T02:27:09.360Z,72.90
2024-01-18T02:29:43.775Z,72.60
2024-01-18T02:32:15.032Z,72.70
2024-01-18T02:34:46.382Z,73.00
2024-01-18T02:37:16.167Z,72.90
2024-01-18T02:39:53.834Z,72.90
2024-01-18T02:42:28.206Z,73.00
2024-01-18T02:45:08.548Z,73.20
2024-01-18T02:47:41.354Z,73.00
2024-01-18T02:50:14.504Z,73.00
2024-01-18T02:52:46.435Z,73.10
2024-01-18T02:55:22.078Z,73.40
2024-01-18T02:57:58.025Z,73.30
2024-01-18T03:00:27.534Z,73.40
2024-01-18T03:02:59.092Z,73.40
2024-01-18T03:05:29.826Z,73.40
2024-01-18T03:08:05.289Z,73.40
2024-01-18T03:10:44.032Z,73.60
2024-01-18T03:13:20.644Z,73.40
2024-01-18T03:16:00.451Z,73.30
2024-01-18T03:18:29.966Z,73.30
2024-01-18T03:21:05.327Z,73.20
2024-01-18T03:23:39.961Z,73.20
2024-01-18T03:26:12.169Z,73.30
2024-01-18T03:28:46.548Z,73.40
2024-01-18T03:31:20.751Z,73.30
2024-01-18T03:33:56.788Z,73.70
2024-01-18T03:36:27.287Z,73.00
2024-01-18T03:38:56.255Z,73.50
2024-01-18T03:41:26.037Z,73.40
2024-01-18T03:44:01.322Z,73.40
2024-01-18T03:46:33.187Z,73.50
2024-01-18T03:49:11.111Z,73.50
2024-01-18T03:51:49.560Z,73.50
2024-01-18T03:54:26.204Z,73.20
2024-01-18T03:56:56.306Z,73.70
2024-01-18T03:59:31.774Z,73.60
2024-01-18T04:02:01.270Z,73.70
2024-01-18T04:04:30.779Z,73.70
2024-01-18T04:06:59.566Z,73.40
2024-01-18T04:09:28.508Z,73.60
2024-01-18T04:12:01.000Z,73.60
2024-01-18T04:14:43.054Z,73.60
2024-01-18T04:17:16.914Z,73.60
2024-01-18T04:19:52.063Z,73.70
2024-01-18T04:22:25.498Z,73.60
2024-01-18T04:24:58.741Z,73.70
2024-01-18T04:27:29.636Z,73.60
2024-01-18T04:30:01.639Z,73.90
2024-01-18T04:32:38.210Z,73.90
2024-01-18T04:35:11.258Z,73.40
2024-01-18T04:37:44.330Z,73.80
2024-01-18T04:40:20.697Z,73.90
2024-01-18T04:42:53.802Z,73.60
2024-01-18T04:45:29.844Z,74.00
2024-01-18T04:48:00.725Z,73.70
2024-01-18T04:51:00.809Z,73.60
2024-01-18T04:53:31.830Z,73.00
2024-01-18T04:56:14.975Z,73.60
2024-01-18T04:58:45.952Z,73.20
2024-01-18T05:01:19.380Z,73.50
2024-01-18T05:03:54.431Z,73.90
2024-01-18T05:06:28.492Z,73.70
2024-01-18T05:09:02.901Z,73.90
2024-01-18T05:11:34.991Z,73.70
2024-01-18T05:14:06.476Z,73.90
2024-01-18T05:16:41.896Z,73.80
2024-01-18T05:19:11.861Z,73.80
2024-01-18T05:21:51.771Z,73.80
2024-01-18T05:24:28.415Z,74.00
2024-01-18T05:26:59.543Z,73.90
2024-01-18T05:29:31.909Z,73.80
2024-01-18T05:32:08.913Z,73.80
2024-01-18T05:34:44.754Z,73.90
2024-01-18T05:37:16.942Z,74.10
2024-01-18T05:39:46.274Z,74.10
2024-01-18T05:42:15.707Z,74.10
2024-01-18T05:44:44.491Z,73.80
2024-01-18T05:47:15.372Z,73.60
2024-01-18T05:49:44.754Z,73.70
2024-01-18T05:52:16.447Z,73.80
2024-01-18T05:54:45.244Z,73.60
2024-01-18T05:57:13.856Z,73.30
2024-01-18T05:59:47.521Z,73.40
2024-01-18T06:02:28.812Z,73.30
2024-01-18T06:05:02.764Z,73.60
2024-01-18T06:07:39.708Z,73.50
2024-01-18T06:10:09.695Z,73.20
2024-01-18T06:12:42.201Z,73.20
2024-01-18T06:15:14.817Z,73.50
2024-01-18T06:17:49.288Z,73.40
2024-01-18T06:20:21.260Z,73.50
2024-01-18T06:22:53.046Z,73.30
2024-01-18T06:25:31.253Z,73.10
2024-01-18T06:28:00.527Z,73.60
2024-01-18T06:30:32.466Z,73.60
2024-01-18T06:33:04.465Z,73.40
2024-01-18T06:35:34.650Z,73.80
2024-01-18T06:38:10.244Z,73.40
2024-01-18T06:40:44.160Z,73.40
2024-01-18T06:43:16.253Z,73.50
2024-01-18T06:45:45.638Z,73.40
2024-01-18T06:48:26.531Z,73.20
2024-01-18T06:51:01.731Z,72.80
2024-01-18T06:53:33.422Z,73.30
2024-01-18T06:56:05.552Z,73.20
2024-01-18T06:58:38.877Z,73.10
2024-01-18T07:01:10.992Z,73.20
2024-01-18T07:03:44.756Z,73.40
2024-01-18T07:10:46.121Z,72.50
2024-01-18T07:13:17.835Z,72.50
2024-01-18T07:16:01.181Z,72.90
2024-01-18T07:18:29.960Z,72.80
2024-01-18T07:20:59.538Z,72.50
2024-01-18T07:23:28.009Z,72.40
2024-01-18T07:25:56.212Z,72.30
2024-01-18T07:28:24.451Z,72.30
2024-01-18T07:30:52.720Z,72.40
2024-01-18T07:33:22.204Z,72.10
2024-01-18T07:35:50.625Z,72.10
2024-01-18T07:38:22.380Z,72.00
2024-01-18T07:40:50.680Z,71.90
2024-01-18T07:43:19.887Z,72.00
2024-01-18T07:45:48.233Z,71.90
2024-01-18T07:48:16.589Z,72.30
2024-01-18T07:50:47.920Z,72.60
2024-01-18T07:53:19.542Z,72.80
2024-01-18T07:55:49.315Z,72.90
2024-01-18T07:58:17.604Z,72.60
2024-01-18T08:00:45.854Z,72.50
2024-01-18T08:03:14.044Z,72.50
2024-01-18T08:05:42.278Z,72.60
2024-01-18T08:08:10.448Z,72.50
2024-01-18T08:10:40.741Z,72.60
2024-01-18T08:13:12.760Z,72.20
2024-01-18T08:15:42.375Z,72.10
2024-01-18T08:18:10.789Z,72.00
2024-01-18T08:20:41.961Z,72.00
2024-01-18T08:23:24.135Z,71.70
2024-01-18T08:25:52.466Z,71.90
2024-01-18T08:28:22.537Z,72.00
2024-01-18T08:30:51.211Z,72.10
2024-01-18T08:33:38.665Z,72.10
2024-01-18T08:36:07.630Z,72.30
2024-01-18T08:38:35.822Z,72.30
2024-01-18T08:41:04.109Z,72.00
2024-01-18T08:43:33.877Z,71.70
2024-01-18T08:46:08.027Z,71.90
2024-01-18T08:48:37.021Z,71.60
2024-01-18T08:51:06.091Z,71.50
2024-01-18T08:53:34.677Z,71.70
2024-01-18T08:56:03.052Z,71.80
2024-01-18T08:58:31.391Z,72.00
2024-01-18T09:01:06.131Z,71.80
2024-01-18T09:03:34.675Z,71.40
2024-01-18T09:06:02.872Z,71.40
2024-01-18T09:08:31.190Z,71.50
2024-01-18T09:10:59.544Z,71.70
2024-01-18T09:13:27.727Z,71.60
2024-01-18T09:15:56.149Z,71.20
2024-01-18T09:18:25.837Z,71.40
2024-01-18T09:20:57.254Z,71.50
2024-01-18T09:23:27.045Z,71.80
2024-01-18T09:26:04.726Z,71.60
2024-01-18T09:28:32.976Z,71.50
2024-01-18T09:31:01.795Z,71.50
2024-01-18T09:33:31.683Z,71.40
2024-01-18T09:36:00.210Z,71.40
2024-01-18T09:38:34.957Z,71.50
2024-01-18T09:41:08.249Z,71.80
2024-01-18T09:43:39.171Z,71.50
2024-01-18T09:46:08.929Z,71.60
2024-01-18T09:48:39.008Z,71.40
2024-01-18T09:51:08.830Z,71.50
2024-01-18T09:53:38.188Z,71.50
2024-01-18T09:56:19.609Z,72.00
2024-01-18T09:58:47.795Z,71.80
2024-01-18T10:01:21.823Z,71.60
2024-01-18T10:03:51.709Z,71.40
2024-01-18T10:06:21.223Z,71.30
2024-01-18T10:09:01.022Z,71.30
2024-01-18T10:11:30.432Z,71.30
2024-01-18T10:14:00.476Z,71.00
2024-01-18T10:16:30.003Z,70.80
2024-01-18T10:19:05.252Z,70.90
2024-01-18T10:21:34.963Z,71.40
2024-01-18T10:24:04.579Z,71.30
2024-01-18T10:26:34.322Z,71.40
2024-01-18T10:29:07.240Z,71.60
2024-01-18T10:31:35.434Z,71.90
2024-01-18T10:34:06.094Z,71.60
2024-01-18T10:36:34.953Z,71.60
2024-01-18T10:39:17.987Z,71.10
2024-01-18T10:41:47.287Z,70.90
2024-01-18T10:44:20.990Z,71.10
2024-01-18T10:47:00.047Z,71.10
2024-01-18T10:49:34.648Z,71.20
2024-01-18T10:52:05.075Z,70.50
2024-01-18T10:54:37.427Z,70.70
2024-01-18T10:57:07.362Z,70.60
2024-01-18T10:59:43.288Z,71.00
2024-01-18T11:02:16.280Z,71.30
2024-01-18T11:04:51.506Z,71.10
2024-01-18T11:07:21.656Z,70.90
2024-01-18T11:09:50.214Z,70.70
2024-01-18T11:12:19.801Z,70.70
2024-01-18T11:14:49.724Z,70.70
2024-01-18T11:17:19.012Z,70.40
2024-01-18T11:19:51.228Z,70.20
2024-01-18T11:22:27.208Z,70.30
2024-01-18T11:25:02.493Z,70.00
2024-01-18T11:27:31.021Z,69.40
2024-01-18T11:29:59.856Z,69.40
2024-01-18T11:32:28.250Z,69.60
2024-01-18T11:35:09.216Z,69.80
2024-01-18T11:37:41.003Z,69.90
2024-01-18T11:40:12.205Z,70.10
2024-01-18T11:42:47.123Z,69.80
2024-01-18T11:45:20.124Z,69.90
2024-01-18T11:47:49.120Z,70.10
2024-01-18T11:50:18.918Z,70.40
2024-01-18T11:52:47.977Z,69.70
2024-01-18T11:55:17.923Z,69.40
2024-01-18T11:57:46.416Z,69.40
2024-01-18T12:00:16.128Z,69.90
2024-01-18T12:02:45.206Z,69.40
2024-01-18T12:05:16.563Z,69.40
2024-01-18T12:07:46.395Z,70.10
2024-01-18T12:10:15.532Z,69.70
2024-01-18T12:12:50.884Z,69.40
2024-01-18T12:15:20.816Z,69.40
2024-01-18T12:17:49.266Z,69.60
2024-01-18T12:20:23.225Z,69.50
2024-01-18T12:23:04.280Z,69.00
2024-01-18T12:25:34.499Z,68.90
2024-01-18T12:28:04.933Z,69.20
2024-01-18T12:30:36.152Z,69.20
2024-01-18T12:33:05.250Z,69.20
2024-01-18T12:35:33.726Z,69.50
2024-01-18T12:38:06.166Z,69.70
2024-01-18T12:40:35.008Z,69.50
2024-01-18T12:43:04.431Z,69.40
2024-01-18T12:45:33.703Z,69.60
2024-01-18T12:48:02.421Z,69.80
2024-01-18T12:50:37.305Z,69.60
2024-01-18T12:53:09.663Z,69.50
2024-01-18T12:55:38.960Z,69.90
2024-01-18T12:58:14.903Z,70.00
2024-01-18T13:00:53.992Z,70.00
2024-01-18T13:03:31.020Z,70.40
2024-01-18T13:05:59.329Z,70.40
2024-01-18T13:08:29.284Z,69.90
2024-01-18T13:10:57.541Z,69.90
2024-01-18T13:16:16.374Z,70.00
2024-01-18T13:29:54.411Z,69.70
2024-01-18T13:32:22.822Z,69.90
2024-01-18T13:34:52.830Z,70.10
2024-01-18T13:37:28.617Z,70.30
2024-01-18T13:39:59.640Z,70.30
2024-01-18T13:42:37.106Z,70.80
2024-01-18T13:45:06.058Z,70.90
2024-01-18T13:47:36.584Z,70.60
2024-01-18T13:50:29.957Z,71.00
2024-01-18T13:52:58.184Z,70.70
2024-01-18T13:55:29.446Z,70.80
2024-01-18T13:58:00.756Z,71.00
2024-01-18T14:00:31.806Z,71.20
2024-01-18T14:03:00.187Z,71.50
2024-01-18T14:05:32.676Z,71.10
2024-01-18T14:08:02.149Z,71.20
2024-01-18T14:10:30.545Z,71.40
2024-01-18T14:13:00.781Z,71.50
2024-01-18T14:15:29.673Z,71.40
2024-01-18T14:17:58.325Z,71.30
2024-01-18T14:20:27.016Z,71.20
2024-01-18T14:22:55.483Z,71.40
2024-01-18T14:25:29.289Z,71.10
2024-01-18T14:28:02.640Z,71.20
2024-01-18T14:30:32.725Z,71.00
2024-01-18T14:33:01.094Z,71.40
2024-01-18T14:35:29.560Z,71.50
2024-01-18T14:37:57.987Z,71.50
2024-01-18T14:40:38.922Z,71.70
2024-01-18T14:43:16.025Z,71.70
2024-01-18T14:45:47.409Z,71.70
2024-01-18T14:48:18.185Z,72.00
2024-01-18T14:50:49.533Z,71.90
2024-01-18T14:53:18.652Z,71.90
2024-01-18T14:55:50.281Z,72.10
2024-01-18T14:58:20.148Z,72.10
2024-01-18T15:00:48.412Z,72.10
2024-01-18T15:03:30.943Z,72.10
2024-01-18T15:05:59.202Z,72.20
2024-01-18T15:08:28.081Z,72.10
2024-01-18T15:10:56.245Z,72.10
2024-01-18T15:13:26.531Z,72.30
2024-01-18T15:16:08.422Z,72.40
2024-01-18T15:19:09.802Z,72.50
2024-01-18T15:22:02.803Z,72.60
2024-01-18T15:24:31.300Z,72.60
2024-01-18T15:26:59.576Z,72.20
2024-01-18T15:29:37.439Z,72.60
2024-01-18T15:32:06.419Z,72.40
2024-01-18T15:34:35.729Z,72.30
2024-01-18T15:37:07.567Z,72.30
2024-01-18T15:39:41.093Z,72.30
2024-01-18T15:42:25.969Z,72.60
2024-01-18T15:45:15.343Z,72.30
2024-01-18T15:47:45.750Z,72.50
2024-01-18T15:50:14.313Z,72.30
2024-01-18T15:52:45.751Z,72.50
2024-01-18T15:55:15.566Z,72.50
2024-01-18T15:57:43.928Z,72.60
2024-01-18T16:00:15.195Z,72.50
2024-01-18T16:02:43.518Z,72.50
2024-01-18T16:05:11.862Z,72.80
2024-01-18T16:07:40.478Z,72.80
2024-01-18T16:10:09.808Z,72.50
2024-01-18T16:12:40.575Z,72.50
2024-01-18T16:15:10.822Z,73.40
2024-01-18T16:17:40.555Z,72.60
2024-01-18T16:20:09.928Z,72.80
2024-01-18T16:22:41.179Z,72.80
2024-01-18T16:25:10.568Z,73.20
2024-01-18T16:27:38.869Z,72.90
2024-01-18T16:30:16.470Z,72.90
2024-01-18T16:32:50.452Z,72.90
2024-01-18T16:35:20.549Z,72.90
2024-01-18T16:37:49.025Z,73.00
2024-01-18T16:40:17.451Z,72.90
2024-01-18T16:42:46.056Z,73.20
2024-01-18T16:45:30.675Z,73.00
2024-01-18T16:48:10.172Z,73.00
2024-01-18T16:51:02.962Z,73.30
2024-01-18T16:53:40.148Z,73.30
2024-01-18T16:56:17.360Z,73.20
2024-01-18T16:58:55.063Z,73.60
2024-01-18T17:01:26.730Z,73.70
2024-01-18T17:04:12.585Z,73.60
2024-01-18T17:09:24.590Z,73.40
2024-01-18T17:11:58.121Z,73.60
2024-01-18T17:14:27.247Z,73.40
2024-01-18T17:17:10.722Z,73.60
2024-01-18T17:19:58.218Z,73.80
2024-01-18T17:22:30.651Z,73.60
2024-01-18T17:25:07.128Z,73.60
2024-01-18T17:28:00.878Z,73.80
2024-01-18T17:30:51.516Z,73.80
2024-01-18T17:33:47.274Z,74.90
2024-01-18T17:36:17.526Z,74.20
2024-01-18T17:38:46.228Z,74.20
2024-01-18T17:41:20.375Z,74.00
2024-01-18T17:44:16.222Z,74.30
2024-01-18T17:46:48.274Z,73.70
2024-01-18T17:49:21.918Z,74.00
2024-01-18T17:51:55.490Z,73.50
2024-01-18T17:54:25.365Z,73.70
2024-01-18T17:57:07.015Z,73.90
2024-01-18T18:00:05.112Z,74.20
2024-01-18T18:03:15.900Z,73.80
2024-01-18T18:05:56.795Z,74.20
2024-01-18T18:08:28.282Z,74.20
2024-01-18T18:11:22.274Z,74.20
2024-01-18T18:13:58.404Z,74.00
2024-01-18T18:16:27.006Z,74.20
2024-01-18T18:18:55.379Z,74.10
2024-01-18T18:21:24.637Z,74.20
2024-01-18T18:24:20.595Z,74.10
2024-01-18T18:26:49.353Z,74.30
2024-01-18T18:29:17.678Z,74.00
2024-01-18T18:31:46.010Z,74.10
2024-01-18T18:34:20.668Z,74.40
2024-01-18T18:36:55.076Z,74.20
2024-01-18T18:39:24.841Z,74.10
2024-01-18T18:41:53.891Z,74.20
2024-01-18T18:44:22.465Z,74.30
2024-01-18T18:46:50.744Z,74.00
2024-01-18T18:49:19.687Z,74.00
2024-01-18T18:51:48.695Z,74.10
2024-01-18T18:54:16.976Z,74.00
2024-01-18T18:56:46.869Z,74.10
2024-01-18T18:59:15.643Z,73.90
2024-01-18T19:01:46.908Z,74.10
2024-01-18T19:04:16.973Z,73.70
2024-01-18T19:06:45.306Z,73.60
2024-01-18T19:09:13.489Z,73.70
2024-01-18T19:11:42.084Z,73.40
2024-01-18T19:14:12.764Z,73.30
2024-01-18T19:16:41.720Z,73.40
2024-01-18T19:19:10.350Z,73.30
2024-01-18T19:21:41.606Z,73.20
2024-01-18T19:24:10.135Z,73.40
2024-01-18T19:26:40.284Z,73.50
2024-01-18T19:29:11.652Z,73.60
2024-01-18T19:32:31.741Z,73.60
2024-01-18T19:39:32.336Z,73.30
2024-01-18T19:42:05.975Z,73.70
2024-01-18T19:44:34.322Z,73.80
2024-01-18T19:47:05.091Z,74.30
2024-01-18T19:49:42.730Z,73.60
2024-01-18T19:52:19.354Z,74.10
2024-01-18T19:54:50.048Z,73.80
2024-01-18T19:57:18.681Z,73.60
2024-01-18T19:59:57.242Z,73.60
2024-01-18T20:02:26.858Z,73.30
2024-01-18T20:04:55.307Z,73.20
2024-01-18T20:07:23.993Z,73.20
2024-01-18T20:09:55.876Z,73.10
2024-01-18T20:12:26.493Z,73.20
2024-01-18T20:14:54.776Z,73.30
2024-01-18T20:17:23.137Z,73.30
2024-01-18T20:19:51.864Z,73.20
2024-01-18T20:22:21.599Z,73.20
2024-01-18T20:24:50.821Z,73.20
2024-01-18T20:27:22.450Z,73.00
2024-01-18T20:29:51.756Z,73.20
2024-01-18T20:32:20.097Z,73.00
2024-01-18T20:34:49.163Z,72.90
2024-01-18T20:37:17.739Z,72.80
2024-01-18T20:39:48.026Z,72.70
2024-01-18T20:42:16.654Z,72.80
2024-01-18T20:44:46.504Z,72.80
2024-01-18T20:47:14.989Z,73.10
2024-01-18T20:49:43.417Z,72.90
2024-01-18T20:52:12.358Z,73.10
2024-01-18T20:54:40.649Z,72.90
2024-01-18T20:57:09.788Z,73.10
2024-01-18T20:59:40.554Z,72.90
2024-01-18T21:02:10.602Z,72.60
2024-01-18T21:04:39.263Z,72.60
2024-01-18T21:07:07.837Z,72.50
2024-01-18T21:09:36.075Z,72.50
2024-01-18T21:12:05.186Z,72.50
2024-01-18T21:14:33.482Z,72.70
2024-01-18T21:17:02.120Z,72.90
2024-01-18T21:19:31.745Z,72.70
2024-01-18T21:22:02.941Z,72.90
2024-01-18T21:24:33.617Z,72.90
2024-01-18T21:27:03.691Z,72.90
2024-01-18T21:29:32.506Z,72.90
2024-01-18T21:32:00.946Z,72.80
2024-01-18T21:37:35.621Z,73.00
2024-01-18T21:49:19.077Z,72.90
2024-01-18T22:11:59.801Z,72.80
2024-01-18T22:14:58.669Z,72.80
